Time;durP1;ratioP1;P1;durP2;ratioP2;P2;SDS_P1;SDS_P2;PMS_P1;PMS_P2;Temp;Humidity;BMP_temperature;BMP_pressure;BME280_temperature;BME280_humidity;BME280_pressure;Samples;Min_cycle;Max_cycle;Signal;HPM_P1;HPM_P2
2022/05/05 00:01:57;;;;;;;;;;;11.40;99.90;;;10.31;100.00;95766.59;10418710;28;1914;-69
2022/05/05 00:07:00;;;;;;;;;;;11.40;99.90;;;10.25;100.00;95770.38;10412897;28;1820;-69
2022/05/05 00:17:23;;;;;;;;;;;11.30;99.90;;;10.09;100.00;95772.22;10408326;28;1937;-69
2022/05/05 00:22:27;;;;;;;;;;;11.20;99.90;;;10.05;100.00;95767.66;10414736;28;1914;-68
2022/05/05 00:27:30;;;;;;;;;;;11.20;99.90;;;10.03;100.00;95766.06;10426317;28;1885;-68
2022/05/05 00:32:34;;;;;;;;;;;11.10;99.90;;;10.08;100.00;95767.94;10407568;28;2310;-69
2022/05/05 00:37:37;;;;;;;;;;;11.10;99.90;;;10.08;100.00;95764.44;10430116;28;1867;-69
2022/05/05 00:42:40;;;;;;;;;;;11.20;99.90;;;10.13;100.00;95759.88;10424949;28;1981;-69
2022/05/05 00:47:43;;;;;;;;;;;11.20;99.90;;;10.15;100.00;95759.59;10432075;28;1946;-69
2022/05/05 00:52:46;;;;;;;;;;;11.20;99.90;;;10.10;100.00;95754.22;10437799;28;2235;-68
2022/05/05 00:57:49;;;;;;;;;;;11.20;99.90;;;10.14;100.00;95753.44;10419919;28;1909;-68
2022/05/05 01:02:52;;;;;;;;;;;11.20;99.90;;;10.06;100.00;95751.28;10431103;28;2238;-69
2022/05/05 01:07:55;;;;;;;;;;;11.20;99.90;;;10.08;100.00;95746.44;10428428;28;1977;-68
2022/05/05 01:13:01;;;;;;;;;;;11.20;99.90;;;10.05;100.00;95752.34;10431485;28;1937;-68
2022/05/05 01:18:04;;;;;;;;;;;11.20;99.90;;;9.98;100.00;95757.19;10418933;28;2013;-69
2022/05/05 01:23:10;;;;;;;;;;;11.10;99.90;;;9.85;100.00;95758.53;10412849;28;1957;-69
2022/05/05 01:28:16;;;;;;;;;;;11.00;99.90;;;9.77;100.00;95755.59;10434470;28;1985;-68
2022/05/05 01:33:20;;;;;;;;;;;11.00;99.90;;;9.69;100.00;95744.31;10416122;28;2438;-69
2022/05/05 01:38:23;;;;;;;;;;;10.90;99.90;;;9.61;100.00;95752.13;10429857;28;2074;-68
2022/05/05 01:43:25;;;;;;;;;;;11.10;99.90;;;9.47;100.00;95757.97;10433637;28;2001;-68
2022/05/05 01:48:28;;;;;;;;;;;10.70;99.90;;;9.39;100.00;95761.19;10428327;28;2038;-68
2022/05/05 01:53:36;;;;;;;;;;;10.60;99.90;;;9.31;100.00;95764.41;10428918;28;2339;-69
2022/05/05 01:58:41;;;;;;;;;;;10.50;99.90;;;9.18;100.00;95763.03;10414977;28;2386;-68
2022/05/05 02:03:45;;;;;;;;;;;10.50;99.90;;;9.03;100.00;95752.25;10409332;28;2382;-68
2022/05/05 02:08:48;;;;;;;;;;;10.30;99.90;;;8.95;100.00;95760.81;10419341;28;2180;-69
2022/05/05 02:13:51;;;;;;;;;;;10.50;99.90;;;8.87;100.00;95770.19;10432902;28;1970;-69
2022/05/05 02:18:55;;;;;;;;;;;10.30;99.90;;;8.78;100.00;95770.94;10430091;28;1949;-69
2022/05/05 02:23:58;;;;;;;;;;;10.30;99.90;;;8.72;100.00;95772.81;10415954;28;2254;-69
2022/05/05 02:29:02;;;;;;;;;;;;;;;8.68;100.00;95776.28;10420384;28;1997;-69
2022/05/05 02:34:08;;;;;;;;;;;10.00;99.90;;;8.65;100.00;95783.78;10411058;28;1929;-69
2022/05/05 02:39:12;;;;;;;;;;;9.90;99.90;;;8.60;100.00;95788.28;10424754;28;1992;-68
2022/05/05 02:44:15;;;;;;;;;;;9.90;99.90;;;8.56;100.00;95779.97;10407689;28;2246;-69
2022/05/05 02:49:18;;;;;;;;;;;9.90;99.90;;;8.62;100.00;95781.59;10429243;28;2218;-69
2022/05/05 02:59:42;;;;;;;;;;;9.80;99.90;;;8.76;100.00;95773.88;10442214;28;1929;-69
2022/05/05 03:04:45;;;;;;;;;;;9.90;99.90;;;8.80;100.00;95774.97;10416277;28;1953;-69
2022/05/05 03:09:48;;;;;;;;;;;9.90;99.90;;;8.85;100.00;95779.56;10426363;28;1924;-69
2022/05/05 03:14:51;;;;;;;;;;;9.90;99.90;;;8.84;100.00;95775.25;10417751;28;1932;-71
2022/05/05 03:19:54;;;;;;;;;;;10.00;99.90;;;8.78;100.00;95784.34;10429765;28;1913;-70
2022/05/05 03:24:58;;;;;;;;;;;10.00;99.90;;;8.82;100.00;95793.47;10421529;28;1993;-68
2022/05/05 03:30:01;;;;;;;;;;;9.90;99.90;;;8.69;100.00;95796.63;10416679;28;1960;-69
2022/05/05 03:35:04;;;;;;;;;;;9.90;99.90;;;8.59;100.00;95795.53;10434745;28;1955;-70
2022/05/05 03:40:07;;;;;;;;;;;9.80;99.90;;;8.47;100.00;95797.59;10423190;28;1922;-69
2022/05/05 03:45:10;;;;;;;;;;;9.70;99.90;;;8.41;100.00;95797.84;10426855;28;2042;-69
2022/05/05 03:50:13;;;;;;;;;;;9.60;99.90;;;8.44;100.00;95798.09;10427840;28;1791;-69
2022/05/05 03:55:16;;;;;;;;;;;9.60;99.90;;;8.56;100.00;95798.72;10413228;28;1773;-69
2022/05/05 04:00:20;;;;;;;;;;;9.60;99.90;;;8.60;100.00;95788.28;10408134;28;1811;-70
2022/05/05 04:05:23;;;;;;;;;;;9.70;99.90;;;8.62;100.00;95795.00;10432711;28;2049;-70
2022/05/05 04:10:27;;;;;;;;;;;9.70;99.90;;;8.79;100.00;95794.00;10427352;28;2058;-70
2022/05/05 04:15:30;;;;;;;;;;;9.70;99.90;;;8.94;100.00;95799.44;10433493;28;2030;-69
2022/05/05 04:20:33;;;;;;;;;;;9.90;99.90;;;9.13;100.00;95800.56;10455254;28;1697;-70
2022/05/05 04:25:36;;;;;;;;;;;10.00;99.90;;;9.39;100.00;95801.44;10431423;28;1977;-69
2022/05/05 04:30:39;;;;;;;;;;;10.20;99.90;;;10.05;100.00;95798.00;10435733;28;1846;-69
2022/05/05 04:35:42;;;;;;;;;;;10.60;99.90;;;10.58;100.00;95797.72;10422415;28;1855;-69
2022/05/05 04:40:46;;;;;;;;;;;11.00;99.90;;;10.80;100.00;95792.78;10422394;28;1822;-70
2022/05/05 04:45:48;;;;;;;;;;;11.40;99.90;;;10.79;100.00;95792.00;10424445;28;1913;-69
2022/05/05 04:50:52;;;;;;;;;;;11.50;99.90;;;10.67;100.00;95791.50;10428772;28;1815;-70
2022/05/05 04:55:55;;;;;;;;;;;11.50;99.90;;;10.74;100.00;95794.69;10415666;28;1843;-69
2022/05/05 05:00:59;;;;;;;;;;;11.60;99.90;;;10.91;100.00;95793.56;10419780;28;1918;-69
2022/05/05 05:06:02;;;;;;;;;;;11.60;99.90;;;11.26;100.00;95784.53;10440495;28;1914;-70
2022/05/05 05:11:05;;;;;;;;;;;11.90;99.90;;;11.16;100.00;95784.59;10452523;28;1842;-70
2022/05/05 05:16:08;;;;;;;;;;;12.00;99.90;;;11.20;100.00;95782.97;10417915;28;1811;-69
2022/05/05 05:21:31;;;;;;;;;;;12.00;99.90;;;11.42;100.00;95796.03;10423026;28;1823;-69
2022/05/05 05:26:34;;;;;;;;;;;12.10;99.90;;;11.32;100.00;95796.88;10435864;28;1918;-68
2022/05/05 05:31:38;;;;;;;;;;;12.10;99.90;;;11.51;100.00;95808.59;10433550;28;1775;-68
2022/05/05 05:36:41;;;;;;;;;;;12.20;99.90;;;12.48;100.00;95809.81;10415342;28;1846;-69
2022/05/05 05:41:44;;;;;;;;;;;12.70;99.90;;;12.54;99.25;95814.06;10434035;28;1829;-68
2022/05/05 05:46:48;;;;;;;;;;;13.10;99.90;;;12.11;100.00;95813.88;10413128;28;1973;-67
2022/05/05 05:51:50;;;;;;;;;;;13.00;99.90;;;12.33;99.53;95814.22;10411148;28;1772;-67
2022/05/05 05:56:53;;;;;;;;;;;13.00;99.90;;;12.84;96.45;95811.03;10430873;28;1957;-67
2022/05/05 06:07:18;;;;;;;;;;;13.60;99.90;;;13.42;92.39;95810.91;10421513;28;1989;-68
2022/05/05 06:12:21;;;;;;;;;;;13.90;99.90;;;13.83;89.03;95815.72;10416426;28;1866;-66
2022/05/05 06:17:24;;;;;;;;;;;14.20;99.90;;;13.11;90.01;95833.94;10432319;28;1870;-68
2022/05/05 06:22:28;;;;;;;;;;;14.10;99.90;;;12.94;91.98;95821.72;10432783;28;1819;-67
2022/05/05 06:27:32;;;;;;;;;;;13.80;99.90;;;13.24;91.39;95825.97;10428401;28;1918;-68
2022/05/05 06:32:35;;;;;;;;;;;14.00;99.90;;;13.93;88.33;95810.19;10422288;28;1808;-68
2022/05/05 06:37:37;;;;;;;;;;;14.40;99.90;;;14.52;83.00;95810.59;10415569;28;1820;-68
2022/05/05 06:42:41;;;;;;;;;;;14.80;99.90;;;15.16;78.00;95808.06;10417439;28;1882;-68
2022/05/05 06:47:44;;;;;;;;;;;15.40;99.90;;;15.41;75.56;95811.03;10438493;28;2148;-68
2022/05/05 06:52:47;;;;;;;;;;;;;;;14.94;75.73;95817.66;10432592;28;1862;-79
2022/05/05 06:57:51;;;;;;;;;;;;;;;14.99;79.76;95827.59;10416796;28;1873;-79
2022/05/05 07:02:55;;;;;;;;;;;;;;;15.08;76.19;95826.63;10420094;28;1842;-70
2022/05/05 07:07:58;;;;;;;;;;;;;;;14.79;79.37;95836.91;10415789;28;1993;-67
2022/05/05 07:13:02;;;;;;;;;;;;;;;15.76;78.31;95843.13;10443179;28;1827;-67
2022/05/05 07:18:06;;;;;;;;;;;;;;;15.65;72.62;95848.78;10416985;28;1879;-68
2022/05/05 07:23:12;;;;;;;;;;;;;;;16.09;74.27;95841.81;10406671;28;1782;-66
2022/05/05 07:28:16;;;;;;;;;;;16.70;99.90;;;16.42;70.16;95841.59;10414624;28;1991;-68
2022/05/05 07:33:20;;;;;;;;;;;16.80;99.90;;;16.37;70.05;95856.06;10415835;28;1842;-69
2022/05/05 07:38:23;;;;;;;;;;;17.00;99.90;;;16.82;68.86;95866.13;10437070;28;1875;-68
2022/05/05 07:43:26;;;;;;;;;;;17.40;99.90;;;17.12;67.43;95865.34;10419057;28;1826;-67
2022/05/05 07:48:29;;;;;;;;;;;17.50;99.90;;;17.59;65.59;95865.66;10416760;28;1829;-68
2022/05/05 07:53:32;;;;;;;;;;;17.80;99.90;;;17.80;65.50;95871.31;10437899;28;1827;-68
2022/05/05 07:58:35;;;;;;;;;;;18.20;99.90;;;17.71;63.82;95874.03;10424147;28;1888;-67
2022/05/05 08:03:38;;;;;;;;;;;18.50;99.90;;;17.27;66.43;95873.06;10414422;28;2016;-67
2022/05/05 08:08:41;;;;;;;;;;;18.20;99.90;;;17.16;65.18;95873.66;10419682;28;1732;-69
2022/05/05 08:13:44;;;;;;;;;;;18.20;99.90;;;17.28;63.91;95874.66;10408060;28;1878;-70
2022/05/05 08:18:47;;;;;;;;;;;17.90;99.90;;;18.24;59.02;95872.97;10439579;28;1996;-70
2022/05/05 08:28:27;;;;;;;;;;;18.30;99.90;;;17.78;58.12;95868.94;10418568;28;1910;-70
2022/05/05 08:29:13;;;;;;;;;;;18.70;99.90;;;18.14;59.17;95876.03;10421635;28;1845;-70
2022/05/05 08:34:16;;;;;;;;;;;18.70;99.90;;;17.65;59.11;95880.69;10446595;28;1801;-68
2022/05/05 08:39:19;;;;;;;;;;;18.90;99.90;;;18.37;56.19;95874.72;10425072;28;2225;-70
2022/05/05 08:44:21;;;;;;;;;;;19.10;99.90;;;17.88;56.71;95886.03;10428851;28;1914;-69
2022/05/05 08:49:25;;;;;;;;;;;19.10;99.90;;;18.73;56.18;95876.34;10420516;28;1881;-71
2022/05/05 08:54:28;;;;;;;;;;;19.20;99.90;;;19.26;55.24;95883.25;10417413;28;1932;-70
2022/05/05 08:59:31;;;;;;;;;;;19.50;99.90;;;20.14;54.02;95878.97;10419869;28;2078;-71
2022/05/05 09:04:34;;;;;;;;;;;20.10;99.90;;;20.25;50.04;95872.78;10437157;28;1913;-70
2022/05/05 09:09:37;;;;;;;;;;;20.70;99.90;;;18.54;55.43;95875.84;10420614;28;1884;-69
2022/05/05 09:14:41;;;;;;;;;;;20.40;99.90;;;19.34;53.23;95876.97;10423009;28;1862;-69
2022/05/05 09:19:44;;;;;;;;;;;20.20;99.90;;;19.50;52.29;95879.16;10434000;28;1802;-69
2022/05/05 09:24:49;;;;;;;;;;;20.20;99.90;;;19.93;51.99;95885.19;10413375;28;1993;-69
2022/05/05 09:29:52;;;;;;;;;;;20.30;99.90;;;20.25;50.09;95882.91;10430684;28;1893;-70
2022/05/05 09:34:56;;;;;;;;;;;20.80;99.90;;;19.78;48.86;95872.13;10412710;28;1840;-70
2022/05/05 09:39:59;;;;;;;;;;;20.80;99.90;;;18.80;52.18;95873.91;10415251;28;1760;-67
2022/05/05 09:45:03;;;;;;;;;;;20.20;99.90;;;19.00;53.47;95872.44;10440547;28;1906;-67
2022/05/05 09:50:06;;;;;;;;;;;19.80;99.90;;;19.33;51.83;95878.09;10410174;28;1800;-67
2022/05/05 10:00:44;;;;;;;;;;;20.40;99.90;;;18.99;49.48;95872.75;10419366;28;1859;-66
2022/05/05 10:05:47;;;;;;;;;;;20.20;99.90;;;19.19;52.78;95866.59;10406868;28;1988;-67
2022/05/05 10:10:49;;;;;;;;;;;20.00;99.90;;;18.85;48.67;95879.19;10405818;28;1778;-66
2022/05/05 10:15:52;;;;;;;;;;;19.90;99.90;;;19.11;47.09;95878.34;10426709;28;1973;-67
2022/05/05 10:21:03;;;;;;;;;;;19.90;99.90;;;19.74;49.48;95871.19;10443227;28;1850;-67
2022/05/05 10:26:07;;;;;;;;;;;20.20;99.90;;;18.48;50.06;95871.69;10429196;28;1978;-66
2022/05/05 10:31:10;;;;;;;;;;;19.80;99.90;;;18.09;50.19;95859.84;10407736;28;1834;-67
2022/05/05 10:36:13;;;;;;;;;;;19.40;99.90;;;18.37;48.32;95858.41;10421864;28;1749;-67
2022/05/05 10:41:16;;;;;;;;;;;19.20;99.90;;;18.75;48.59;95849.56;10436551;28;1855;-68
2022/05/05 10:46:19;;;;;;;;;;;19.30;99.90;;;18.39;48.85;95857.31;10425135;28;1910;-68
2022/05/05 10:51:22;;;;;;;;;;;19.30;99.90;;;19.17;45.74;95850.59;10434343;28;1833;-69
2022/05/05 10:56:25;;;;;;;;;;;19.60;99.90;;;19.98;44.05;95844.09;10428365;28;1872;-68
2022/05/05 11:01:29;;;;;;;;;;;20.10;99.90;;;19.48;44.99;95837.78;10416014;28;1848;-69
2022/05/05 11:06:33;;;;;;;;;;;20.30;99.90;;;19.76;45.11;95833.47;10428899;28;1980;-68
2022/05/05 11:11:44;;;;;;;;;;;20.30;99.90;;;20.00;44.67;95837.50;10433804;28;1831;-69
2022/05/05 11:22:09;;;;;;;;;;;20.80;99.90;;;19.92;44.25;95831.78;10410843;28;1811;-68
2022/05/05 11:27:12;;;;;;;;;;;20.80;99.90;;;19.39;44.97;95816.00;10427329;28;1919;-69
2022/05/05 11:32:15;;;;;;;;;;;20.70;99.90;;;19.29;44.91;95811.75;10407937;28;1914;-69
2022/05/05 11:37:19;;;;;;;;;;;20.60;99.90;;;19.40;44.78;95812.16;10431193;28;1888;-68
2022/05/05 11:42:21;;;;;;;;;;;20.50;99.90;;;19.59;45.09;95803.56;10430707;28;1852;-68
2022/05/05 11:47:25;;;;;;;;;;;20.50;99.90;;;19.27;45.37;95803.06;10422817;28;1917;-67
2022/05/05 11:52:30;;;;;;;;;;;20.50;99.90;;;19.35;44.11;95793.28;10428706;28;1832;-68
2022/05/05 11:57:33;;;;;;;;;;;20.50;99.90;;;19.44;44.09;95786.63;10437727;28;1816;-67
2022/05/05 12:02:36;;;;;;;;;;;20.50;99.90;;;19.51;42.64;95779.88;10425883;28;1827;-68
2022/05/05 12:07:44;;;;;;;;;;;20.50;99.90;;;19.99;43.89;95771.22;10442575;28;1958;-67
2022/05/05 12:12:47;;;;;;;;;;;20.80;99.90;;;20.12;44.35;95764.69;10440662;28;1926;-67
2022/05/05 12:17:52;;;;;;;;;;;21.00;99.90;;;20.12;42.78;95751.03;10423033;28;1927;-67
2022/05/05 12:22:55;;;;;;;;;;;21.30;99.90;;;20.65;43.75;95746.66;10424608;28;1917;-67
2022/05/05 12:27:58;;;;;;;;;;;21.40;99.90;;;20.65;44.45;95746.66;10425748;28;1987;-67
2022/05/05 12:33:02;;;;;;;;;;;21.70;99.90;;;20.58;43.84;95740.97;10442612;28;1856;-67
2022/05/05 12:38:11;;;;;;;;;;;21.70;99.90;;;20.08;44.72;95744.66;10427894;28;1809;-67
2022/05/05 12:43:14;;;;;;;;;;;21.40;99.90;;;19.51;44.04;95733.53;10452168;28;1994;-68
2022/05/05 12:48:17;;;;;;;;;;;20.90;99.90;;;19.96;45.03;95737.19;10434432;28;1918;-66
2022/05/05 13:04:05;;;;;;;;;;;20.80;99.90;;;19.92;44.75;95735.50;10417432;28;1965;-67
2022/05/05 13:09:08;;;;;;;;;;;20.60;99.90;;;20.40;42.83;95740.31;10421818;28;2028;-68
2022/05/05 13:14:11;;;;;;;;;;;21.00;99.90;;;20.82;41.66;95729.28;10439306;28;1847;-68
2022/05/05 13:19:14;;;;;;;;;;;21.40;99.90;;;20.60;41.20;95719.56;10425698;28;1864;-68
2022/05/05 13:24:17;;;;;;;;;;;21.60;99.90;;;20.30;42.23;95713.47;10414335;28;1817;-68
2022/05/05 13:29:20;;;;;;;;;;;21.50;99.90;;;20.60;41.57;95710.59;10427805;28;2011;-68
2022/05/05 13:34:24;;;;;;;;;;;21.50;99.90;;;20.59;42.16;95709.00;10442489;28;1892;-68
2022/05/05 13:39:27;;;;;;;;;;;21.40;99.90;;;20.79;42.21;95708.09;10440509;28;1969;-67
2022/05/05 13:44:30;;;;;;;;;;;21.70;99.90;;;20.79;42.05;95708.09;10434040;28;1815;-67
2022/05/05 13:49:33;;;;;;;;;;;21.80;99.90;;;20.34;43.23;95695.25;10439022;28;1971;-68
2022/05/05 13:54:36;;;;;;;;;;;21.40;99.90;;;19.76;45.01;95694.38;10434714;28;1811;-68
2022/05/05 13:59:43;;;;;;;;;;;21.30;99.90;;;20.01;44.04;95683.56;10408753;28;1785;-69
2022/05/05 14:05:05;;;;;;;;;;;20.90;99.90;;;20.82;41.80;95687.53;10418216;28;1973;-68
2022/05/05 14:15:30;;;;;;;;;;;21.60;99.90;;;19.83;43.56;95693.84;10417893;28;1877;-69
2022/05/05 14:20:32;;;;;;;;;;;21.40;99.90;;;20.31;43.95;95687.75;10427993;28;1923;-69
2022/05/05 14:25:35;;;;;;;;;;;21.10;99.90;;;19.89;45.22;95687.84;10411124;28;1943;-69
2022/05/05 14:30:38;;;;;;;;;;;21.00;99.90;;;19.85;45.25;95692.41;10424781;28;1839;-69
2022/05/05 14:35:41;;;;;;;;;;;21.00;99.90;;;20.14;44.70;95690.66;10412421;28;1806;-69
2022/05/05 14:40:44;;;;;;;;;;;20.90;99.90;;;20.03;45.08;95698.47;10421136;28;1861;-68
2022/05/05 14:45:47;;;;;;;;;;;21.10;99.90;;;20.06;43.62;95699.75;10426041;28;1991;-68
2022/05/05 14:50:51;;;;;;;;;;;20.90;99.90;;;20.13;43.17;95700.78;10415542;28;1868;-69
2022/05/05 14:55:53;;;;;;;;;;;20.90;99.90;;;19.27;45.80;95710.41;10421772;28;1932;-69
2022/05/05 15:00:57;;;;;;;;;;;20.60;99.90;;;19.15;46.44;95710.38;10424082;28;1837;-69
2022/05/05 15:06:00;;;;;;;;;;;20.30;99.90;;;19.65;45.39;95707.63;10414459;28;1967;-70
2022/05/05 15:11:04;;;;;;;;;;;20.50;99.90;;;20.00;44.78;95707.34;10425865;28;1672;-69
2022/05/05 15:16:06;;;;;;;;;;;20.60;99.90;;;19.67;44.63;95710.03;10426553;28;1793;-69
2022/05/05 15:21:09;;;;;;;;;;;20.60;99.90;;;19.34;46.05;95699.00;10423409;28;1789;-69
2022/05/05 15:26:13;;;;;;;;;;;20.30;99.90;;;19.54;44.35;95700.97;10433249;28;1979;-70
2022/05/05 15:31:16;;;;;;;;;;;20.40;99.90;;;19.33;44.80;95695.47;10432822;28;1923;-69
2022/05/05 15:36:19;;;;;;;;;;;20.40;99.90;;;19.44;44.75;95693.97;10405458;28;2163;-69
2022/05/05 15:41:23;;;;;;;;;;;20.30;99.90;;;19.32;43.75;95696.59;10442364;28;1841;-69
2022/05/05 15:46:26;;;;;;;;;;;20.30;99.90;;;18.88;43.22;95693.34;10433839;28;2209;-69
2022/05/05 15:51:29;;;;;;;;;;;20.10;99.90;;;18.86;42.73;95701.03;10427628;28;1746;-68
2022/05/05 15:56:32;;;;;;;;;;;19.80;99.90;;;18.83;42.45;95699.00;10427139;28;2198;-68
2022/05/05 16:01:35;;;;;;;;;;;19.90;99.90;;;18.72;43.70;95700.47;10443763;28;1808;-68
2022/05/05 16:06:38;;;;;;;;;;;19.80;99.90;;;18.51;44.66;95694.94;10423539;28;1910;-67
2022/05/05 16:11:42;;;;;;;;;;;19.60;99.90;;;18.39;46.13;95699.47;10442635;28;1837;-68
2022/05/05 16:16:45;;;;;;;;;;;19.40;99.90;;;18.39;49.00;95704.91;10438448;28;1813;-67
2022/05/05 16:21:48;;;;;;;;;;;19.40;99.90;;;18.31;51.30;95711.94;10429361;28;1840;-68
2022/05/05 16:32:13;;;;;;;;;;;19.10;99.90;;;17.69;55.20;95712.34;10433868;28;1828;-68
2022/05/05 16:37:17;;;;;;;;;;;18.80;99.90;;;17.73;56.36;95713.31;10438750;28;1799;-68
2022/05/05 16:42:21;;;;;;;;;;;18.70;99.90;;;17.72;57.08;95717.94;10435583;28;1844;-69
2022/05/05 16:47:24;;;;;;;;;;;18.70;99.90;;;17.54;58.22;95714.41;10435812;28;1993;-68
2022/05/05 16:52:28;;;;;;;;;;;18.60;99.90;;;17.64;58.90;95715.22;10418795;28;1812;-69
2022/05/05 16:57:31;;;;;;;;;;;18.60;99.90;;;17.42;59.16;95724.28;10449936;28;1800;-68
2022/05/05 17:02:34;;;;;;;;;;;18.50;99.90;;;17.38;59.47;95726.88;10417011;28;1787;-68
2022/05/05 17:07:38;;;;;;;;;;;18.40;99.90;;;17.50;59.79;95742.53;10444631;28;1910;-69
2022/05/05 17:12:42;;;;;;;;;;;18.40;99.90;;;17.17;60.97;95740.22;10431322;28;1871;-68
2022/05/05 17:17:45;;;;;;;;;;;18.30;99.90;;;17.11;61.29;95736.06;10433070;28;1818;-69
2022/05/05 17:22:48;;;;;;;;;;;18.10;99.90;;;17.00;62.05;95751.06;10425190;28;1805;-69
2022/05/05 17:27:51;;;;;;;;;;;18.10;99.90;;;16.94;62.75;95750.41;10447432;28;1910;-68
2022/05/05 17:32:56;;;;;;;;;;;18.00;99.90;;;16.82;62.77;95754.84;10448368;28;1922;-69
2022/05/05 17:37:59;;;;;;;;;;;17.90;99.90;;;16.76;62.93;95756.88;10450113;28;1944;-69
2022/05/05 17:43:03;;;;;;;;;;;17.90;99.90;;;16.57;63.46;95754.38;10447062;28;1948;-68
2022/05/05 17:53:28;;;;;;;;;;;17.50;99.90;;;16.38;64.94;95746.44;10417559;28;1919;-68
2022/05/05 17:58:31;;;;;;;;;;;17.40;99.90;;;16.26;65.28;95757.06;10448625;28;1859;-67
2022/05/05 18:03:43;;;;;;;;;;;17.40;99.90;;;16.16;65.14;95760.84;10440459;28;1915;-68
2022/05/05 18:08:46;;;;;;;;;;;17.20;99.90;;;16.12;65.41;95754.44;10432281;28;1918;-70
2022/05/05 18:13:49;;;;;;;;;;;17.20;99.90;;;16.02;66.14;95762.81;10403632;28;1896;-70
2022/05/05 18:18:53;;;;;;;;;;;17.10;99.90;;;15.90;65.54;95767.97;10435848;28;1770;-69
2022/05/05 18:23:56;;;;;;;;;;;17.00;99.90;;;15.76;66.17;95764.50;10426762;28;1781;-69
2022/05/05 18:28:59;;;;;;;;;;;16.90;99.90;;;15.67;66.81;95778.00;10434863;28;1914;-68
2022/05/05 18:34:02;;;;;;;;;;;16.70;99.90;;;15.55;67.85;95770.38;10416231;28;1787;-70
2022/05/05 18:39:06;;;;;;;;;;;16.70;99.90;;;15.46;67.63;95758.66;10427741;28;1824;-68
2022/05/05 18:44:09;;;;;;;;;;;16.60;99.90;;;15.40;68.29;95765.31;10411572;28;1931;-68
2022/05/05 18:49:12;;;;;;;;;;;16.50;99.90;;;15.31;68.00;95767.09;10416388;28;1922;-68
2022/05/05 18:54:16;;;;;;;;;;;16.40;99.90;;;15.19;68.04;95773.03;10408896;28;1840;-68
2022/05/05 18:59:19;;;;;;;;;;;16.40;99.90;;;15.17;67.79;95782.56;10432908;28;1855;-68
2022/05/05 19:04:22;;;;;;;;;;;16.20;99.90;;;15.08;67.96;95782.50;10430467;28;1871;-69
2022/05/05 19:09:25;;;;;;;;;;;16.10;99.90;;;15.00;68.18;95799.41;10446024;28;1918;-70
2022/05/05 19:14:28;;;;;;;;;;;16.10;99.90;;;14.96;67.92;95798.44;10435685;28;1840;-69
2022/05/05 19:19:31;;;;;;;;;;;16.00;99.90;;;14.91;67.83;95802.03;10454624;28;1800;-68
2022/05/05 19:24:33;;;;;;;;;;;16.00;99.90;;;14.85;67.53;95811.34;10449709;28;1776;-69
2022/05/05 19:29:36;;;;;;;;;;;15.90;99.90;;;14.80;68.05;95808.72;10430377;28;1910;-68
2022/05/05 19:34:39;;;;;;;;;;;15.80;99.90;;;14.77;67.89;95798.53;10450637;28;1875;-68
2022/05/05 19:39:43;;;;;;;;;;;15.80;99.90;;;14.76;67.86;95815.84;10456020;28;1831;-69
2022/05/05 19:44:46;;;;;;;;;;;15.80;99.90;;;14.68;67.78;95819.25;10440130;28;1917;-68
2022/05/05 19:49:50;;;;;;;;;;;15.70;99.90;;;14.63;67.51;95824.72;10488919;22;2205;-71
2022/05/05 19:54:53;;;;;;;;;;;15.70;99.90;;;14.56;68.08;95833.22;10457440;28;1762;-70
2022/05/05 20:10:38;;;;;;;;;;;15.40;99.90;;;14.13;72.78;95828.00;10435019;28;1910;-71
2022/05/05 20:15:41;;;;;;;;;;;15.20;99.90;;;13.99;73.26;95830.59;10443368;28;1862;-72
2022/05/05 20:20:45;;;;;;;;;;;15.10;99.90;;;13.93;72.99;95831.81;10438174;28;2202;-71
2022/05/05 20:25:49;;;;;;;;;;;15.10;99.90;;;13.88;73.68;95836.47;10440933;28;1947;-73
2022/05/05 20:30:53;;;;;;;;;;;15.00;99.90;;;13.84;73.65;95844.34;10454555;28;1914;-71
2022/05/05 20:35:55;;;;;;;;;;;14.90;99.90;;;13.82;73.33;95857.38;10459017;28;1939;-72
2022/05/05 20:40:58;;;;;;;;;;;14.90;99.90;;;13.77;74.00;95854.72;10435748;28;1948;-72
2022/05/05 20:46:01;;;;;;;;;;;14.80;99.90;;;13.71;74.74;95855.88;10450169;28;1810;-75
2022/05/05 20:51:04;;;;;;;;;;;14.80;99.90;;;13.75;75.14;95852.31;10446418;28;2075;-74
2022/05/05 20:56:08;;;;;;;;;;;14.80;99.90;;;13.69;75.96;95858.09;10437519;28;1786;-74
2022/05/05 21:01:11;;;;;;;;;;;14.80;99.90;;;13.66;76.45;95851.34;10450369;28;2191;-72
2022/05/05 21:06:14;;;;;;;;;;;14.70;99.90;;;13.64;77.46;95866.25;10459227;28;1861;-73
2022/05/05 21:11:17;;;;;;;;;;;15.20;99.90;;;13.62;77.88;95869.25;10428397;28;1906;-73
2022/05/05 21:16:20;;;;;;;;;;;14.70;99.90;;;13.59;78.65;95866.31;10415795;28;1838;-75
2022/05/05 21:26:44;;;;;;;;;;;14.60;99.90;;;13.51;80.27;95875.88;10438913;28;1831;-74
2022/05/05 21:31:47;;;;;;;;;;;14.60;99.90;;;13.40;81.74;95882.47;10447998;28;1914;-75
2022/05/05 21:36:50;;;;;;;;;;;14.50;99.90;;;13.42;82.50;95885.69;10427003;28;1946;-73
2022/05/05 21:41:53;;;;;;;;;;;14.40;99.90;;;13.35;83.10;95893.34;10438888;28;1947;-74
2022/05/05 21:46:57;;;;;;;;;;;14.40;99.90;;;13.23;84.32;95882.94;10417206;28;1774;-74
2022/05/05 21:52:00;;;;;;;;;;;14.40;99.90;;;13.22;84.66;95884.03;10436990;28;1910;-73
2022/05/05 21:57:03;;;;;;;;;;;14.20;99.90;;;13.15;85.08;95887.03;10435387;28;1751;-74
2022/05/05 22:02:06;;;;;;;;;;;14.20;99.90;;;13.14;85.65;95880.03;10436702;28;1850;-73
2022/05/05 22:07:09;;;;;;;;;;;14.20;99.90;;;13.03;86.90;95883.13;10417606;28;1972;-74
2022/05/05 22:12:12;;;;;;;;;;;14.10;99.90;;;13.03;86.70;95888.53;10442954;28;1845;-74
2022/05/05 22:17:17;;;;;;;;;;;14.10;99.90;;;12.96;87.53;95891.56;10423472;28;1837;-74
2022/05/05 22:22:20;;;;;;;;;;;14.00;99.90;;;12.86;88.76;95900.59;10419316;28;1751;-73
2022/05/05 22:27:25;;;;;;;;;;;;;;;12.76;89.89;95894.47;10417206;28;1910;-74
2022/05/05 22:32:29;;;;;;;;;;;13.90;99.90;;;12.70;91.03;95901.81;10421681;28;1905;-73
2022/05/05 22:37:33;;;;;;;;;;;13.80;99.90;;;12.63;91.22;95895.94;10435522;28;1904;-74
2022/05/05 22:42:36;;;;;;;;;;;13.70;99.90;;;12.60;92.40;95910.00;10429703;28;1821;-74
2022/05/05 22:47:39;;;;;;;;;;;13.70;99.90;;;12.63;91.94;95909.41;10415691;28;2295;-74
2022/05/05 22:52:43;;;;;;;;;;;13.70;99.90;;;12.68;92.12;95928.25;10439654;28;1790;-73
2022/05/05 22:57:46;;;;;;;;;;;13.70;99.90;;;12.68;92.32;95942.53;10415775;28;1830;-73
2022/05/05 23:02:49;;;;;;;;;;;13.70;99.90;;;12.81;92.19;95957.28;10421728;28;1684;-73
2022/05/05 23:07:51;;;;;;;;;;;13.70;99.90;;;12.95;90.93;95963.63;10449917;28;1906;-74
2022/05/05 23:12:54;;;;;;;;;;;13.80;99.90;;;13.09;89.73;95971.06;10411426;28;1841;-75
2022/05/05 23:17:57;;;;;;;;;;;14.00;99.90;;;13.15;89.65;95980.72;10421900;28;1932;-72
2022/05/05 23:23:05;;;;;;;;;;;14.00;99.90;;;13.19;89.53;95974.47;10432784;28;1845;-73
2022/05/05 23:28:09;;;;;;;;;;;14.10;99.90;;;13.30;89.39;95982.50;10418686;28;1918;-74
2022/05/05 23:33:12;;;;;;;;;;;14.20;99.90;;;13.32;91.09;95988.41;10433688;28;1876;-74
2022/05/05 23:38:15;;;;;;;;;;;14.30;99.90;;;13.14;89.51;96003.41;10434595;28;1857;-73
2022/05/05 23:43:18;;;;;;;;;;;14.20;99.90;;;12.97;89.25;95985.72;10428744;28;1873;-73
2022/05/05 23:48:21;;;;;;;;;;;14.10;99.90;;;12.92;89.32;95980.38;10417116;28;1983;-73
2022/05/05 23:53:25;;;;;;;;;;;13.80;99.90;;;12.73;90.18;95984.88;10438705;28;1832;-74
2022/05/05 23:58:29;;;;;;;;;;;13.80;99.90;;;12.55;93.59;95990.94;10424094;28;1817;-73
